Terminal Aerodrome Forecast
Issued by NWS Mt. Holly, NJ

Home | Current Version | Previous Version | Text Only | Print | Product List | Glossary On
Versions: 1 2 3 4 5 6 7 8 9 10 11 12 13 14 15 16 17 18 19 20 21 22 23 24 25 26 27 28 29 30 31
333
FTUS41 KPHI 250401 AAA
TAFRDG
TAF AMD
KRDG 250401Z 2504/2524 03004KT 6SM BR BKN009 OVC020
     FM250800 VRB02KT 4SM BR BKN010
     FM251500 33006KT P6SM OVC025
     FM252100 34005KT P6SM SCT025 BKN040=

USA.gov is the U.S. government's official web portal to all federal, state and local government web resources and services.